sensor_id;sensor_type;location;lat;lon;timestamp;P1;durP1;ratioP1;P2;durP2;ratioP2
11817;SDS011;5966;52.402;5.322;2022-07-29T00:01:18;2.00;;;1.30;;
11817;SDS011;5966;52.402;5.322;2022-07-29T00:03:46;3.60;;;1.93;;
11817;SDS011;5966;52.402;5.322;2022-07-29T00:06:15;2.90;;;1.07;;
11817;SDS011;5966;52.402;5.322;2022-07-29T00:08:43;3.67;;;1.10;;
11817;SDS011;5966;52.402;5.322;2022-07-29T00:11:10;2.87;;;1.10;;
11817;SDS011;5966;52.402;5.322;2022-07-29T00:13:40;4.33;;;1.00;;
11817;SDS011;5966;52.402;5.322;2022-07-29T00:16:14;1.77;;;0.90;;
11817;SDS011;5966;52.402;5.322;2022-07-29T00:18:42;3.57;;;1.13;;
11817;SDS011;5966;52.402;5.322;2022-07-29T00:21:10;1.73;;;0.90;;
11817;SDS011;5966;52.402;5.322;2022-07-29T00:23:38;2.37;;;1.00;;
11817;SDS011;5966;52.402;5.322;2022-07-29T00:26:06;4.03;;;0.90;;
11817;SDS011;5966;52.402;5.322;2022-07-29T00:28:34;1.97;;;1.10;;
11817;SDS011;5966;52.402;5.322;2022-07-29T00:31:03;1.10;;;0.97;;
11817;SDS011;5966;52.402;5.322;2022-07-29T00:33:31;4.80;;;1.30;;
11817;SDS011;5966;52.402;5.322;2022-07-29T00:35:59;2.67;;;1.20;;
11817;SDS011;5966;52.402;5.322;2022-07-29T00:38:26;1.57;;;0.93;;
11817;SDS011;5966;52.402;5.322;2022-07-29T00:40:54;2.10;;;0.90;;
11817;SDS011;5966;52.402;5.322;2022-07-29T00:43:22;2.57;;;1.23;;
11817;SDS011;5966;52.402;5.322;2022-07-29T00:45:50;1.57;;;1.10;;
11817;SDS011;5966;52.402;5.322;2022-07-29T00:48:19;1.77;;;1.10;;
11817;SDS011;5966;52.402;5.322;2022-07-29T00:50:48;0.93;;;0.90;;
11817;SDS011;5966;52.402;5.322;2022-07-29T00:53:16;1.97;;;1.07;;
11817;SDS011;5966;52.402;5.322;2022-07-29T00:55:46;1.03;;;0.93;;
11817;SDS011;5966;52.402;5.322;2022-07-29T00:58:14;2.70;;;1.30;;
11817;SDS011;5966;52.402;5.322;2022-07-29T01:00:42;3.37;;;1.40;;
11817;SDS011;5966;52.402;5.322;2022-07-29T01:03:10;3.30;;;1.20;;
11817;SDS011;5966;52.402;5.322;2022-07-29T01:05:41;3.27;;;1.13;;
11817;SDS011;5966;52.402;5.322;2022-07-29T01:08:17;2.27;;;1.37;;
11817;SDS011;5966;52.402;5.322;2022-07-29T01:10:46;2.77;;;1.33;;
11817;SDS011;5966;52.402;5.322;2022-07-29T01:13:15;3.23;;;1.57;;
11817;SDS011;5966;52.402;5.322;2022-07-29T01:15:45;2.03;;;0.97;;
11817;SDS011;5966;52.402;5.322;2022-07-29T01:18:17;1.23;;;1.13;;
11817;SDS011;5966;52.402;5.322;2022-07-29T01:21:07;3.57;;;1.20;;
11817;SDS011;5966;52.402;5.322;2022-07-29T01:26:47;2.43;;;1.30;;
11817;SDS011;5966;52.402;5.322;2022-07-29T01:29:25;3.80;;;1.30;;
11817;SDS011;5966;52.402;5.322;2022-07-29T01:32:06;2.00;;;1.40;;
11817;SDS011;5966;52.402;5.322;2022-07-29T01:34:54;3.27;;;1.47;;
11817;SDS011;5966;52.402;5.322;2022-07-29T01:37:28;2.67;;;1.20;;
11817;SDS011;5966;52.402;5.322;2022-07-29T01:39:59;3.43;;;1.50;;
11817;SDS011;5966;52.402;5.322;2022-07-29T01:42:32;1.87;;;1.47;;
11817;SDS011;5966;52.402;5.322;2022-07-29T01:45:06;3.50;;;1.77;;
11817;SDS011;5966;52.402;5.322;2022-07-29T01:47:39;2.40;;;1.40;;
11817;SDS011;5966;52.402;5.322;2022-07-29T01:50:12;2.37;;;0.93;;
11817;SDS011;5966;52.402;5.322;2022-07-29T01:52:44;1.30;;;1.13;;
11817;SDS011;5966;52.402;5.322;2022-07-29T01:55:15;2.30;;;1.07;;
11817;SDS011;5966;52.402;5.322;2022-07-29T01:57:45;2.90;;;1.37;;
11817;SDS011;5966;52.402;5.322;2022-07-29T02:00:16;1.20;;;1.10;;
11817;SDS011;5966;52.402;5.322;2022-07-29T02:02:45;2.13;;;1.30;;
11817;SDS011;5966;52.402;5.322;2022-07-29T02:05:15;2.67;;;1.37;;
11817;SDS011;5966;52.402;5.322;2022-07-29T02:07:47;1.83;;;1.37;;
11817;SDS011;5966;52.402;5.322;2022-07-29T02:10:16;2.50;;;1.10;;
11817;SDS011;5966;52.402;5.322;2022-07-29T02:12:51;2.20;;;1.50;;
11817;SDS011;5966;52.402;5.322;2022-07-29T02:15:22;3.30;;;1.77;;
11817;SDS011;5966;52.402;5.322;2022-07-29T02:17:53;3.03;;;1.20;;
11817;SDS011;5966;52.402;5.322;2022-07-29T02:20:25;2.07;;;1.10;;
11817;SDS011;5966;52.402;5.322;2022-07-29T02:22:53;3.50;;;1.30;;
11817;SDS011;5966;52.402;5.322;2022-07-29T02:25:22;3.70;;;1.40;;
11817;SDS011;5966;52.402;5.322;2022-07-29T02:28:03;2.07;;;1.03;;
11817;SDS011;5966;52.402;5.322;2022-07-29T02:30:34;1.47;;;1.27;;
11817;SDS011;5966;52.402;5.322;2022-07-29T02:33:06;1.53;;;1.30;;
11817;SDS011;5966;52.402;5.322;2022-07-29T02:35:36;4.63;;;1.57;;
11817;SDS011;5966;52.402;5.322;2022-07-29T02:38:05;1.67;;;1.40;;
11817;SDS011;5966;52.402;5.322;2022-07-29T02:40:52;3.57;;;1.20;;
11817;SDS011;5966;52.402;5.322;2022-07-29T02:43:22;1.80;;;1.40;;
11817;SDS011;5966;52.402;5.322;2022-07-29T02:45:53;2.30;;;1.27;;
11817;SDS011;5966;52.402;5.322;2022-07-29T02:48:25;7.03;;;1.50;;
11817;SDS011;5966;52.402;5.322;2022-07-29T02:51:01;3.13;;;1.47;;
11817;SDS011;5966;52.402;5.322;2022-07-29T02:53:37;1.67;;;1.20;;
11817;SDS011;5966;52.402;5.322;2022-07-29T02:56:10;2.30;;;1.20;;
11817;SDS011;5966;52.402;5.322;2022-07-29T02:58:42;1.77;;;1.13;;
11817;SDS011;5966;52.402;5.322;2022-07-29T03:01:16;2.87;;;1.33;;
11817;SDS011;5966;52.402;5.322;2022-07-29T03:03:49;2.17;;;1.20;;
11817;SDS011;5966;52.402;5.322;2022-07-29T03:06:19;2.60;;;1.30;;
11817;SDS011;5966;52.402;5.322;2022-07-29T03:09:03;1.87;;;1.17;;
11817;SDS011;5966;52.402;5.322;2022-07-29T03:11:38;1.47;;;1.03;;
11817;SDS011;5966;52.402;5.322;2022-07-29T03:14:16;2.23;;;1.33;;
11817;SDS011;5966;52.402;5.322;2022-07-29T03:16:48;2.43;;;1.37;;
11817;SDS011;5966;52.402;5.322;2022-07-29T03:19:17;2.67;;;1.30;;
11817;SDS011;5966;52.402;5.322;2022-07-29T03:21:46;1.63;;;1.20;;
11817;SDS011;5966;52.402;5.322;2022-07-29T03:24:24;2.17;;;1.60;;
11817;SDS011;5966;52.402;5.322;2022-07-29T03:26:54;5.40;;;1.23;;
11817;SDS011;5966;52.402;5.322;2022-07-29T03:29:22;1.57;;;0.90;;
11817;SDS011;5966;52.402;5.322;2022-07-29T03:32:00;4.00;;;1.30;;
11817;SDS011;5966;52.402;5.322;2022-07-29T03:34:34;2.47;;;1.53;;
11817;SDS011;5966;52.402;5.322;2022-07-29T03:37:02;3.00;;;1.47;;
11817;SDS011;5966;52.402;5.322;2022-07-29T03:39:33;2.60;;;1.50;;
11817;SDS011;5966;52.402;5.322;2022-07-29T03:42:03;1.23;;;1.13;;
11817;SDS011;5966;52.402;5.322;2022-07-29T03:44:34;1.73;;;1.20;;
11817;SDS011;5966;52.402;5.322;2022-07-29T03:47:05;1.93;;;1.20;;
11817;SDS011;5966;52.402;5.322;2022-07-29T03:49:35;1.80;;;1.50;;
11817;SDS011;5966;52.402;5.322;2022-07-29T03:52:04;1.93;;;1.07;;
11817;SDS011;5966;52.402;5.322;2022-07-29T03:54:33;2.00;;;1.27;;
11817;SDS011;5966;52.402;5.322;2022-07-29T03:57:02;2.67;;;1.40;;
11817;SDS011;5966;52.402;5.322;2022-07-29T03:59:32;1.67;;;1.20;;
11817;SDS011;5966;52.402;5.322;2022-07-29T04:02:01;2.07;;;1.27;;
11817;SDS011;5966;52.402;5.322;2022-07-29T04:04:33;1.70;;;1.23;;
11817;SDS011;5966;52.402;5.322;2022-07-29T04:07:01;3.80;;;1.23;;
11817;SDS011;5966;52.402;5.322;2022-07-29T04:09:30;2.23;;;1.20;;
11817;SDS011;5966;52.402;5.322;2022-07-29T04:11:58;2.13;;;1.50;;
11817;SDS011;5966;52.402;5.322;2022-07-29T04:14:29;3.17;;;1.30;;
11817;SDS011;5966;52.402;5.322;2022-07-29T04:16:57;1.60;;;1.50;;
11817;SDS011;5966;52.402;5.322;2022-07-29T04:19:25;1.53;;;1.30;;
11817;SDS011;5966;52.402;5.322;2022-07-29T04:21:55;3.30;;;1.30;;
11817;SDS011;5966;52.402;5.322;2022-07-29T04:24:23;3.13;;;1.40;;
11817;SDS011;5966;52.402;5.322;2022-07-29T04:26:51;1.37;;;1.27;;
11817;SDS011;5966;52.402;5.322;2022-07-29T04:29:19;1.27;;;1.20;;
11817;SDS011;5966;52.402;5.322;2022-07-29T04:31:47;3.00;;;1.70;;
11817;SDS011;5966;52.402;5.322;2022-07-29T04:34:15;2.73;;;1.43;;
11817;SDS011;5966;52.402;5.322;2022-07-29T04:36:43;1.70;;;1.20;;
11817;SDS011;5966;52.402;5.322;2022-07-29T04:39:13;1.40;;;1.30;;
11817;SDS011;5966;52.402;5.322;2022-07-29T04:41:47;1.57;;;1.40;;
11817;SDS011;5966;52.402;5.322;2022-07-29T04:44:17;3.73;;;1.70;;
11817;SDS011;5966;52.402;5.322;2022-07-29T04:46:45;2.70;;;1.30;;
11817;SDS011;5966;52.402;5.322;2022-07-29T04:49:13;2.27;;;1.40;;
11817;SDS011;5966;52.402;5.322;2022-07-29T04:51:41;2.53;;;1.50;;
11817;SDS011;5966;52.402;5.322;2022-07-29T04:54:09;2.40;;;1.57;;
11817;SDS011;5966;52.402;5.322;2022-07-29T04:56:38;3.13;;;1.50;;
11817;SDS011;5966;52.402;5.322;2022-07-29T04:59:07;2.93;;;1.50;;
11817;SDS011;5966;52.402;5.322;2022-07-29T05:01:38;1.63;;;1.50;;
11817;SDS011;5966;52.402;5.322;2022-07-29T05:04:06;3.70;;;2.67;;
11817;SDS011;5966;52.402;5.322;2022-07-29T05:06:34;3.13;;;1.20;;
11817;SDS011;5966;52.402;5.322;2022-07-29T05:09:02;1.57;;;1.03;;
11817;SDS011;5966;52.402;5.322;2022-07-29T05:11:30;1.73;;;1.27;;
11817;SDS011;5966;52.402;5.322;2022-07-29T05:13:59;1.30;;;1.30;;
11817;SDS011;5966;52.402;5.322;2022-07-29T05:16:28;2.10;;;1.37;;
11817;SDS011;5966;52.402;5.322;2022-07-29T05:18:56;1.87;;;1.37;;
11817;SDS011;5966;52.402;5.322;2022-07-29T05:21:24;2.60;;;1.40;;
11817;SDS011;5966;52.402;5.322;2022-07-29T05:23:52;2.13;;;1.20;;
11817;SDS011;5966;52.402;5.322;2022-07-29T05:26:20;1.90;;;1.13;;
11817;SDS011;5966;52.402;5.322;2022-07-29T05:28:48;3.13;;;1.83;;
11817;SDS011;5966;52.402;5.322;2022-07-29T05:31:18;4.40;;;1.50;;
11817;SDS011;5966;52.402;5.322;2022-07-29T05:33:46;1.93;;;1.40;;
11817;SDS011;5966;52.402;5.322;2022-07-29T05:36:13;1.87;;;1.30;;
11817;SDS011;5966;52.402;5.322;2022-07-29T05:38:41;5.43;;;1.53;;
11817;SDS011;5966;52.402;5.322;2022-07-29T05:41:09;3.20;;;1.43;;
11817;SDS011;5966;52.402;5.322;2022-07-29T05:43:37;3.30;;;1.80;;
11817;SDS011;5966;52.402;5.322;2022-07-29T05:46:05;2.90;;;1.60;;
11817;SDS011;5966;52.402;5.322;2022-07-29T05:48:35;4.00;;;1.70;;
11817;SDS011;5966;52.402;5.322;2022-07-29T05:51:03;4.40;;;1.97;;
11817;SDS011;5966;52.402;5.322;2022-07-29T05:53:32;2.80;;;1.47;;
11817;SDS011;5966;52.402;5.322;2022-07-29T05:56:02;7.23;;;1.50;;
11817;SDS011;5966;52.402;5.322;2022-07-29T05:58:30;4.87;;;1.43;;
11817;SDS011;5966;52.402;5.322;2022-07-29T06:00:58;3.93;;;1.50;;
11817;SDS011;5966;52.402;5.322;2022-07-29T06:03:27;2.97;;;1.73;;
11817;SDS011;5966;52.402;5.322;2022-07-29T06:05:56;1.87;;;1.50;;
11817;SDS011;5966;52.402;5.322;2022-07-29T06:08:24;4.40;;;1.50;;
11817;SDS011;5966;52.402;5.322;2022-07-29T06:10:52;3.47;;;1.67;;
11817;SDS011;5966;52.402;5.322;2022-07-29T06:13:20;2.57;;;1.30;;
11817;SDS011;5966;52.402;5.322;2022-07-29T06:15:48;5.47;;;1.73;;
11817;SDS011;5966;52.402;5.322;2022-07-29T06:18:16;3.50;;;1.40;;
11817;SDS011;5966;52.402;5.322;2022-07-29T06:20:44;4.80;;;1.77;;
11817;SDS011;5966;52.402;5.322;2022-07-29T06:23:13;4.87;;;1.60;;
11817;SDS011;5966;52.402;5.322;2022-07-29T06:25:41;5.70;;;1.80;;
11817;SDS011;5966;52.402;5.322;2022-07-29T06:28:09;4.70;;;1.57;;
11817;SDS011;5966;52.402;5.322;2022-07-29T06:30:37;1.93;;;1.50;;
11817;SDS011;5966;52.402;5.322;2022-07-29T06:33:05;7.73;;;1.97;;
11817;SDS011;5966;52.402;5.322;2022-07-29T06:35:33;3.30;;;1.50;;
11817;SDS011;5966;52.402;5.322;2022-07-29T06:38:07;11.37;;;1.60;;
11817;SDS011;5966;52.402;5.322;2022-07-29T06:40:58;5.40;;;1.50;;
11817;SDS011;5966;52.402;5.322;2022-07-29T06:43:34;2.57;;;1.27;;
11817;SDS011;5966;52.402;5.322;2022-07-29T06:46:18;6.60;;;1.60;;
11817;SDS011;5966;52.402;5.322;2022-07-29T06:48:47;9.77;;;1.97;;
11817;SDS011;5966;52.402;5.322;2022-07-29T06:51:15;3.30;;;1.57;;
11817;SDS011;5966;52.402;5.322;2022-07-29T06:53:48;6.67;;;1.80;;
11817;SDS011;5966;52.402;5.322;2022-07-29T06:56:28;4.30;;;1.70;;
11817;SDS011;5966;52.402;5.322;2022-07-29T06:58:56;3.37;;;1.77;;
11817;SDS011;5966;52.402;5.322;2022-07-29T07:01:26;3.97;;;1.70;;
11817;SDS011;5966;52.402;5.322;2022-07-29T07:03:54;2.60;;;1.57;;
11817;SDS011;5966;52.402;5.322;2022-07-29T07:06:22;2.93;;;1.67;;
11817;SDS011;5966;52.402;5.322;2022-07-29T07:08:50;4.00;;;1.67;;
11817;SDS011;5966;52.402;5.322;2022-07-29T07:11:18;2.30;;;1.40;;
11817;SDS011;5966;52.402;5.322;2022-07-29T07:13:48;1.90;;;1.60;;
11817;SDS011;5966;52.402;5.322;2022-07-29T07:16:16;5.50;;;1.70;;
11817;SDS011;5966;52.402;5.322;2022-07-29T07:18:44;2.17;;;1.50;;
11817;SDS011;5966;52.402;5.322;2022-07-29T07:21:12;1.87;;;1.60;;
11817;SDS011;5966;52.402;5.322;2022-07-29T07:23:44;3.87;;;1.53;;
11817;SDS011;5966;52.402;5.322;2022-07-29T07:26:12;1.97;;;1.60;;
11817;SDS011;5966;52.402;5.322;2022-07-29T07:28:40;2.70;;;1.47;;
11817;SDS011;5966;52.402;5.322;2022-07-29T07:31:10;4.27;;;2.00;;
11817;SDS011;5966;52.402;5.322;2022-07-29T07:33:38;2.53;;;1.43;;
11817;SDS011;5966;52.402;5.322;2022-07-29T07:36:06;3.57;;;1.70;;
11817;SDS011;5966;52.402;5.322;2022-07-29T07:38:34;4.50;;;1.50;;
11817;SDS011;5966;52.402;5.322;2022-07-29T07:41:02;3.20;;;1.88;;
11817;SDS011;5966;52.402;5.322;2022-07-29T07:43:30;3.53;;;1.80;;
11817;SDS011;5966;52.402;5.322;2022-07-29T07:45:58;2.60;;;1.80;;
11817;SDS011;5966;52.402;5.322;2022-07-29T07:48:27;3.20;;;1.73;;
11817;SDS011;5966;52.402;5.322;2022-07-29T07:50:55;3.23;;;1.70;;
11817;SDS011;5966;52.402;5.322;2022-07-29T07:53:23;2.40;;;1.60;;
11817;SDS011;5966;52.402;5.322;2022-07-29T07:55:51;3.17;;;1.53;;
11817;SDS011;5966;52.402;5.322;2022-07-29T07:58:37;3.63;;;1.83;;
11817;SDS011;5966;52.402;5.322;2022-07-29T08:01:06;4.27;;;1.87;;
11817;SDS011;5966;52.402;5.322;2022-07-29T08:03:35;3.30;;;1.80;;
11817;SDS011;5966;52.402;5.322;2022-07-29T08:06:03;3.90;;;1.70;;
11817;SDS011;5966;52.402;5.322;2022-07-29T08:08:32;3.17;;;2.10;;
11817;SDS011;5966;52.402;5.322;2022-07-29T08:11:00;3.33;;;1.97;;
11817;SDS011;5966;52.402;5.322;2022-07-29T08:13:34;5.47;;;2.23;;
11817;SDS011;5966;52.402;5.322;2022-07-29T08:16:03;3.73;;;1.70;;
11817;SDS011;5966;52.402;5.322;2022-07-29T08:18:40;2.73;;;1.80;;
11817;SDS011;5966;52.402;5.322;2022-07-29T08:21:09;3.27;;;1.87;;
11817;SDS011;5966;52.402;5.322;2022-07-29T08:23:40;2.63;;;1.60;;
11817;SDS011;5966;52.402;5.322;2022-07-29T08:26:25;3.00;;;1.90;;
11817;SDS011;5966;52.402;5.322;2022-07-29T08:28:52;3.10;;;2.15;;
11817;SDS011;5966;52.402;5.322;2022-07-29T08:31:20;3.23;;;1.77;;
11817;SDS011;5966;52.402;5.322;2022-07-29T08:33:50;3.83;;;1.97;;
11817;SDS011;5966;52.402;5.322;2022-07-29T08:36:18;2.87;;;1.80;;
11817;SDS011;5966;52.402;5.322;2022-07-29T08:38:47;2.60;;;2.00;;
11817;SDS011;5966;52.402;5.322;2022-07-29T08:41:15;5.67;;;1.70;;
11817;SDS011;5966;52.402;5.322;2022-07-29T08:43:45;4.53;;;1.90;;
11817;SDS011;5966;52.402;5.322;2022-07-29T08:46:13;5.63;;;2.10;;
11817;SDS011;5966;52.402;5.322;2022-07-29T08:48:41;5.70;;;2.27;;
11817;SDS011;5966;52.402;5.322;2022-07-29T08:51:13;3.93;;;2.13;;
11817;SDS011;5966;52.402;5.322;2022-07-29T08:53:42;5.80;;;2.90;;
11817;SDS011;5966;52.402;5.322;2022-07-29T08:56:11;5.40;;;2.17;;
11817;SDS011;5966;52.402;5.322;2022-07-29T08:58:40;7.07;;;2.07;;
11817;SDS011;5966;52.402;5.322;2022-07-29T09:01:17;2.57;;;1.70;;
11817;SDS011;5966;52.402;5.322;2022-07-29T09:04:03;8.83;;;2.43;;
11817;SDS011;5966;52.402;5.322;2022-07-29T09:06:34;3.90;;;2.07;;
11817;SDS011;5966;52.402;5.322;2022-07-29T09:09:07;3.83;;;2.03;;
11817;SDS011;5966;52.402;5.322;2022-07-29T09:11:35;3.50;;;2.40;;
11817;SDS011;5966;52.402;5.322;2022-07-29T09:14:05;3.93;;;2.10;;
11817;SDS011;5966;52.402;5.322;2022-07-29T09:19:26;3.60;;;2.37;;
11817;SDS011;5966;52.402;5.322;2022-07-29T09:21:57;5.33;;;2.27;;
11817;SDS011;5966;52.402;5.322;2022-07-29T09:24:39;3.17;;;2.43;;
11817;SDS011;5966;52.402;5.322;2022-07-29T09:29:55;2.73;;;1.80;;
11817;SDS011;5966;52.402;5.322;2022-07-29T09:32:24;2.63;;;2.33;;
11817;SDS011;5966;52.402;5.322;2022-07-29T09:37:46;3.70;;;2.00;;
11817;SDS011;5966;52.402;5.322;2022-07-29T09:40:15;3.07;;;2.40;;
11817;SDS011;5966;52.402;5.322;2022-07-29T09:42:44;12.63;;;7.40;;
11817;SDS011;5966;52.402;5.322;2022-07-29T09:45:13;4.53;;;2.40;;
11817;SDS011;5966;52.402;5.322;2022-07-29T09:47:54;4.77;;;2.40;;
11817;SDS011;5966;52.402;5.322;2022-07-29T09:50:34;4.25;;;2.63;;
11817;SDS011;5966;52.402;5.322;2022-07-29T09:53:04;5.87;;;2.50;;
11817;SDS011;5966;52.402;5.322;2022-07-29T09:55:32;3.37;;;2.47;;
11817;SDS011;5966;52.402;5.322;2022-07-29T09:58:16;4.00;;;2.53;;
11817;SDS011;5966;52.402;5.322;2022-07-29T10:00:45;2.67;;;2.30;;
11817;SDS011;5966;52.402;5.322;2022-07-29T10:03:14;4.47;;;2.77;;
11817;SDS011;5966;52.402;5.322;2022-07-29T10:05:43;5.50;;;2.38;;
11817;SDS011;5966;52.402;5.322;2022-07-29T10:08:13;4.77;;;2.60;;
11817;SDS011;5966;52.402;5.322;2022-07-29T10:11:03;6.23;;;3.00;;
11817;SDS011;5966;52.402;5.322;2022-07-29T10:13:36;2.95;;;2.38;;
11817;SDS011;5966;52.402;5.322;2022-07-29T10:16:06;2.90;;;2.50;;
11817;SDS011;5966;52.402;5.322;2022-07-29T10:18:34;3.57;;;2.30;;
11817;SDS011;5966;52.402;5.322;2022-07-29T10:21:05;4.73;;;2.67;;
11817;SDS011;5966;52.402;5.322;2022-07-29T10:23:35;3.43;;;2.50;;
11817;SDS011;5966;52.402;5.322;2022-07-29T10:26:12;5.63;;;2.88;;
11817;SDS011;5966;52.402;5.322;2022-07-29T10:28:40;4.23;;;2.90;;
11817;SDS011;5966;52.402;5.322;2022-07-29T10:31:10;5.93;;;2.80;;
11817;SDS011;5966;52.402;5.322;2022-07-29T10:33:46;3.87;;;2.60;;
11817;SDS011;5966;52.402;5.322;2022-07-29T10:36:27;2.95;;;2.30;;
11817;SDS011;5966;52.402;5.322;2022-07-29T10:39:12;6.25;;;3.28;;
11817;SDS011;5966;52.402;5.322;2022-07-29T10:42:01;5.67;;;2.60;;
11817;SDS011;5966;52.402;5.322;2022-07-29T10:44:42;4.33;;;2.10;;
11817;SDS011;5966;52.402;5.322;2022-07-29T10:47:19;3.57;;;2.37;;
11817;SDS011;5966;52.402;5.322;2022-07-29T10:49:57;2.80;;;2.50;;
11817;SDS011;5966;52.402;5.322;2022-07-29T10:55:35;4.22;;;2.17;;
11817;SDS011;5966;52.402;5.322;2022-07-29T10:58:12;3.13;;;2.47;;
11817;SDS011;5966;52.402;5.322;2022-07-29T11:01:01;3.78;;;2.70;;
11817;SDS011;5966;52.402;5.322;2022-07-29T11:04:04;5.55;;;2.70;;
11817;SDS011;5966;52.402;5.322;2022-07-29T11:09:34;3.10;;;2.73;;
11817;SDS011;5966;52.402;5.322;2022-07-29T11:12:05;4.33;;;2.33;;
11817;SDS011;5966;52.402;5.322;2022-07-29T11:15:13;2.77;;;2.40;;
11817;SDS011;5966;52.402;5.322;2022-07-29T11:18:03;4.07;;;2.40;;
11817;SDS011;5966;52.402;5.322;2022-07-29T11:20:38;3.03;;;2.30;;
11817;SDS011;5966;52.402;5.322;2022-07-29T11:23:18;5.72;;;2.65;;
11817;SDS011;5966;52.402;5.322;2022-07-29T11:28:50;3.38;;;2.80;;
11817;SDS011;5966;52.402;5.322;2022-07-29T11:31:32;2.90;;;2.00;;
11817;SDS011;5966;52.402;5.322;2022-07-29T11:34:17;3.60;;;1.93;;
11817;SDS011;5966;52.402;5.322;2022-07-29T11:40:10;4.07;;;2.22;;
11817;SDS011;5966;52.402;5.322;2022-07-29T11:42:46;3.47;;;2.33;;
11817;SDS011;5966;52.402;5.322;2022-07-29T11:45:20;3.47;;;2.17;;
11817;SDS011;5966;52.402;5.322;2022-07-29T11:48:17;6.00;;;2.63;;
11817;SDS011;5966;52.402;5.322;2022-07-29T11:50:58;4.23;;;2.50;;
11817;SDS011;5966;52.402;5.322;2022-07-29T11:53:28;6.55;;;2.67;;
11817;SDS011;5966;52.402;5.322;2022-07-29T11:55:58;2.50;;;2.13;;
11817;SDS011;5966;52.402;5.322;2022-07-29T11:58:28;4.22;;;2.30;;
11817;SDS011;5966;52.402;5.322;2022-07-29T12:00:57;7.43;;;2.80;;
11817;SDS011;5966;52.402;5.322;2022-07-29T12:03:30;3.13;;;2.38;;
11817;SDS011;5966;52.402;5.322;2022-07-29T12:06:02;4.43;;;2.35;;
11817;SDS011;5966;52.402;5.322;2022-07-29T12:08:38;3.58;;;2.63;;
11817;SDS011;5966;52.402;5.322;2022-07-29T12:11:15;3.78;;;2.60;;
11817;SDS011;5966;52.402;5.322;2022-07-29T12:13:46;6.38;;;2.55;;
11817;SDS011;5966;52.402;5.322;2022-07-29T12:16:16;4.07;;;2.70;;
11817;SDS011;5966;52.402;5.322;2022-07-29T12:18:55;5.30;;;3.13;;
11817;SDS011;5966;52.402;5.322;2022-07-29T12:21:24;6.57;;;2.67;;
11817;SDS011;5966;52.402;5.322;2022-07-29T12:23:54;4.87;;;2.27;;
11817;SDS011;5966;52.402;5.322;2022-07-29T12:26:31;4.50;;;3.10;;
11817;SDS011;5966;52.402;5.322;2022-07-29T12:29:01;4.83;;;2.50;;
11817;SDS011;5966;52.402;5.322;2022-07-29T12:31:38;5.00;;;3.03;;
11817;SDS011;5966;52.402;5.322;2022-07-29T12:34:10;5.85;;;3.10;;
11817;SDS011;5966;52.402;5.322;2022-07-29T12:36:39;6.10;;;2.80;;
11817;SDS011;5966;52.402;5.322;2022-07-29T12:39:08;3.67;;;2.83;;
11817;SDS011;5966;52.402;5.322;2022-07-29T12:41:38;7.07;;;2.70;;
11817;SDS011;5966;52.402;5.322;2022-07-29T12:44:06;5.22;;;2.97;;
11817;SDS011;5966;52.402;5.322;2022-07-29T12:46:34;7.30;;;3.88;;
11817;SDS011;5966;52.402;5.322;2022-07-29T12:49:03;3.57;;;3.07;;
11817;SDS011;5966;52.402;5.322;2022-07-29T12:51:32;3.80;;;2.70;;
11817;SDS011;5966;52.402;5.322;2022-07-29T12:54:03;5.47;;;3.03;;
11817;SDS011;5966;52.402;5.322;2022-07-29T12:56:33;3.92;;;3.13;;
11817;SDS011;5966;52.402;5.322;2022-07-29T12:59:14;8.82;;;2.92;;
11817;SDS011;5966;52.402;5.322;2022-07-29T13:01:44;7.37;;;3.63;;
11817;SDS011;5966;52.402;5.322;2022-07-29T13:04:25;4.47;;;3.60;;
11817;SDS011;5966;52.402;5.322;2022-07-29T13:06:59;4.33;;;3.60;;
11817;SDS011;5966;52.402;5.322;2022-07-29T13:09:36;5.03;;;3.65;;
11817;SDS011;5966;52.402;5.322;2022-07-29T13:12:05;4.47;;;3.38;;
11817;SDS011;5966;52.402;5.322;2022-07-29T13:14:37;5.78;;;3.30;;
11817;SDS011;5966;52.402;5.322;2022-07-29T13:17:07;3.35;;;3.03;;
11817;SDS011;5966;52.402;5.322;2022-07-29T13:19:38;7.10;;;3.47;;
11817;SDS011;5966;52.402;5.322;2022-07-29T13:22:07;3.40;;;3.10;;
11817;SDS011;5966;52.402;5.322;2022-07-29T13:24:45;5.68;;;4.30;;
11817;SDS011;5966;52.402;5.322;2022-07-29T13:27:14;6.30;;;3.80;;
11817;SDS011;5966;52.402;5.322;2022-07-29T13:29:43;5.88;;;3.22;;
11817;SDS011;5966;52.402;5.322;2022-07-29T13:32:11;6.18;;;3.78;;
11817;SDS011;5966;52.402;5.322;2022-07-29T13:34:42;4.75;;;3.88;;
11817;SDS011;5966;52.402;5.322;2022-07-29T13:37:12;5.60;;;4.07;;
11817;SDS011;5966;52.402;5.322;2022-07-29T13:39:40;7.65;;;4.00;;
11817;SDS011;5966;52.402;5.322;2022-07-29T13:42:18;5.72;;;3.78;;
11817;SDS011;5966;52.402;5.322;2022-07-29T13:44:46;4.65;;;3.53;;
11817;SDS011;5966;52.402;5.322;2022-07-29T13:47:14;6.53;;;4.20;;
11817;SDS011;5966;52.402;5.322;2022-07-29T13:49:44;5.05;;;3.92;;
11817;SDS011;5966;52.402;5.322;2022-07-29T13:52:13;5.10;;;3.25;;
11817;SDS011;5966;52.402;5.322;2022-07-29T13:54:41;6.50;;;3.70;;
11817;SDS011;5966;52.402;5.322;2022-07-29T13:57:10;4.30;;;3.17;;
11817;SDS011;5966;52.402;5.322;2022-07-29T13:59:38;7.28;;;3.97;;
11817;SDS011;5966;52.402;5.322;2022-07-29T14:02:07;5.63;;;4.03;;
11817;SDS011;5966;52.402;5.322;2022-07-29T14:04:36;5.50;;;4.25;;
11817;SDS011;5966;52.402;5.322;2022-07-29T14:07:06;7.63;;;4.78;;
11817;SDS011;5966;52.402;5.322;2022-07-29T14:09:35;8.05;;;3.90;;
11817;SDS011;5966;52.402;5.322;2022-07-29T14:12:07;7.53;;;3.78;;
11817;SDS011;5966;52.402;5.322;2022-07-29T14:14:36;5.28;;;4.28;;
11817;SDS011;5966;52.402;5.322;2022-07-29T14:17:04;6.32;;;3.88;;
11817;SDS011;5966;52.402;5.322;2022-07-29T14:19:33;6.95;;;4.45;;
11817;SDS011;5966;52.402;5.322;2022-07-29T14:22:05;4.78;;;3.95;;
11817;SDS011;5966;52.402;5.322;2022-07-29T14:24:35;8.45;;;4.22;;
11817;SDS011;5966;52.402;5.322;2022-07-29T14:27:04;8.63;;;5.65;;
11817;SDS011;5966;52.402;5.322;2022-07-29T14:29:33;7.70;;;5.63;;
11817;SDS011;5966;52.402;5.322;2022-07-29T14:32:03;6.90;;;4.43;;
11817;SDS011;5966;52.402;5.322;2022-07-29T14:34:33;5.95;;;3.67;;
11817;SDS011;5966;52.402;5.322;2022-07-29T14:37:01;4.35;;;3.40;;
11817;SDS011;5966;52.402;5.322;2022-07-29T14:39:32;8.27;;;4.57;;
11817;SDS011;5966;52.402;5.322;2022-07-29T14:42:10;8.48;;;4.13;;
11817;SDS011;5966;52.402;5.322;2022-07-29T14:44:40;4.97;;;4.15;;
11817;SDS011;5966;52.402;5.322;2022-07-29T14:47:12;9.50;;;4.75;;
11817;SDS011;5966;52.402;5.322;2022-07-29T14:49:40;5.93;;;4.60;;
11817;SDS011;5966;52.402;5.322;2022-07-29T14:52:07;7.57;;;4.35;;
11817;SDS011;5966;52.402;5.322;2022-07-29T14:54:37;6.63;;;4.35;;
11817;SDS011;5966;52.402;5.322;2022-07-29T14:57:05;7.80;;;4.57;;
11817;SDS011;5966;52.402;5.322;2022-07-29T14:59:33;4.38;;;3.50;;
11817;SDS011;5966;52.402;5.322;2022-07-29T15:02:01;7.47;;;4.40;;
11817;SDS011;5966;52.402;5.322;2022-07-29T15:04:29;6.63;;;4.45;;
11817;SDS011;5966;52.402;5.322;2022-07-29T15:06:57;5.93;;;3.80;;
11817;SDS011;5966;52.402;5.322;2022-07-29T15:09:25;8.18;;;3.85;;
11817;SDS011;5966;52.402;5.322;2022-07-29T15:11:55;5.68;;;3.63;;
11817;SDS011;5966;52.402;5.322;2022-07-29T15:14:24;5.00;;;3.65;;
11817;SDS011;5966;52.402;5.322;2022-07-29T15:16:53;6.13;;;3.38;;
11817;SDS011;5966;52.402;5.322;2022-07-29T15:19:22;5.97;;;3.25;;
11817;SDS011;5966;52.402;5.322;2022-07-29T15:21:50;6.40;;;3.72;;
11817;SDS011;5966;52.402;5.322;2022-07-29T15:24:22;4.22;;;2.95;;
11817;SDS011;5966;52.402;5.322;2022-07-29T15:26:50;5.65;;;3.20;;
11817;SDS011;5966;52.402;5.322;2022-07-29T15:29:19;4.15;;;3.05;;
11817;SDS011;5966;52.402;5.322;2022-07-29T15:31:47;5.20;;;3.03;;
11817;SDS011;5966;52.402;5.322;2022-07-29T15:34:16;6.05;;;2.78;;
11817;SDS011;5966;52.402;5.322;2022-07-29T15:36:44;5.70;;;3.10;;
11817;SDS011;5966;52.402;5.322;2022-07-29T15:39:18;6.82;;;2.47;;
11817;SDS011;5966;52.402;5.322;2022-07-29T15:41:47;4.13;;;2.55;;
11817;SDS011;5966;52.402;5.322;2022-07-29T15:44:16;3.63;;;2.10;;
11817;SDS011;5966;52.402;5.322;2022-07-29T15:46:45;4.78;;;2.22;;
11817;SDS011;5966;52.402;5.322;2022-07-29T15:49:33;8.00;;;2.38;;